sensor_id;sensor_type;location;lat;lon;timestamp;temperature;humidity
15172;DHT22;7686;52.184;9.280;2023-04-03T00:00:17;26.40;34.60
15172;DHT22;7686;52.184;9.280;2023-04-03T00:02:43;26.40;34.60
15172;DHT22;7686;52.184;9.280;2023-04-03T00:05:10;26.40;34.70
15172;DHT22;7686;52.184;9.280;2023-04-03T00:07:37;26.40;34.70
15172;DHT22;7686;52.184;9.280;2023-04-03T00:10:04;26.40;34.70
15172;DHT22;7686;52.184;9.280;2023-04-03T00:12:30;26.40;34.80
15172;DHT22;7686;52.184;9.280;2023-04-03T00:14:57;26.40;34.80
15172;DHT22;7686;52.184;9.280;2023-04-03T00:17:24;26.30;34.70
15172;DHT22;7686;52.184;9.280;2023-04-03T00:19:50;26.30;34.80
15172;DHT22;7686;52.184;9.280;2023-04-03T00:22:17;26.30;34.80
15172;DHT22;7686;52.184;9.280;2023-04-03T00:24:44;26.30;34.80
15172;DHT22;7686;52.184;9.280;2023-04-03T00:27:10;26.30;34.80
15172;DHT22;7686;52.184;9.280;2023-04-03T00:29:37;26.20;34.80
15172;DHT22;7686;52.184;9.280;2023-04-03T00:32:04;26.20;34.80
15172;DHT22;7686;52.184;9.280;2023-04-03T00:34:31;26.20;34.80
15172;DHT22;7686;52.184;9.280;2023-04-03T00:36:57;26.20;34.80
15172;DHT22;7686;52.184;9.280;2023-04-03T00:39:24;26.20;34.80
15172;DHT22;7686;52.184;9.280;2023-04-03T00:41:51;26.20;34.90
15172;DHT22;7686;52.184;9.280;2023-04-03T00:47:08;26.10;34.90
15172;DHT22;7686;52.184;9.280;2023-04-03T00:49:38;26.10;34.90
15172;DHT22;7686;52.184;9.280;2023-04-03T00:52:08;26.10;34.90
15172;DHT22;7686;52.184;9.280;2023-04-03T00:54:37;26.10;35.00
15172;DHT22;7686;52.184;9.280;2023-04-03T00:57:05;26.10;35.00
15172;DHT22;7686;52.184;9.280;2023-04-03T00:59:36;26.10;35.00
15172;DHT22;7686;52.184;9.280;2023-04-03T01:02:04;26.10;35.00
15172;DHT22;7686;52.184;9.280;2023-04-03T01:04:32;26.10;35.00
15172;DHT22;7686;52.184;9.280;2023-04-03T01:07:06;26.10;35.70
15172;DHT22;7686;52.184;9.280;2023-04-03T01:09:34;26.10;35.10
15172;DHT22;7686;52.184;9.280;2023-04-03T01:12:30;26.00;34.90
15172;DHT22;7686;52.184;9.280;2023-04-03T01:14:59;26.00;35.00
15172;DHT22;7686;52.184;9.280;2023-04-03T01:17:27;26.00;35.00
15172;DHT22;7686;52.184;9.280;2023-04-03T01:23:12;26.00;35.00
15172;DHT22;7686;52.184;9.280;2023-04-03T01:25:50;26.00;35.00
15172;DHT22;7686;52.184;9.280;2023-04-03T01:28:21;26.00;35.10
15172;DHT22;7686;52.184;9.280;2023-04-03T01:31:20;25.90;35.00
15172;DHT22;7686;52.184;9.280;2023-04-03T01:33:48;25.90;35.10
15172;DHT22;7686;52.184;9.280;2023-04-03T01:36:21;25.90;35.10
15172;DHT22;7686;52.184;9.280;2023-04-03T01:38:48;25.90;35.10
15172;DHT22;7686;52.184;9.280;2023-04-03T01:41:15;25.90;35.80
15172;DHT22;7686;52.184;9.280;2023-04-03T01:43:42;25.80;35.10
15172;DHT22;7686;52.184;9.280;2023-04-03T01:46:09;25.90;35.10
15172;DHT22;7686;52.184;9.280;2023-04-03T01:48:36;25.80;35.10
15172;DHT22;7686;52.184;9.280;2023-04-03T01:51:03;25.90;35.20
15172;DHT22;7686;52.184;9.280;2023-04-03T01:53:30;25.80;35.10
15172;DHT22;7686;52.184;9.280;2023-04-03T01:55:56;25.80;35.10
15172;DHT22;7686;52.184;9.280;2023-04-03T01:58:23;25.80;35.10
15172;DHT22;7686;52.184;9.280;2023-04-03T02:00:50;25.80;35.10
15172;DHT22;7686;52.184;9.280;2023-04-03T02:03:17;25.80;35.10
15172;DHT22;7686;52.184;9.280;2023-04-03T02:05:43;25.80;35.10
15172;DHT22;7686;52.184;9.280;2023-04-03T02:08:10;25.80;35.10
15172;DHT22;7686;52.184;9.280;2023-04-03T02:10:37;25.80;35.20
15172;DHT22;7686;52.184;9.280;2023-04-03T02:13:04;25.80;35.20
15172;DHT22;7686;52.184;9.280;2023-04-03T02:15:31;25.80;35.20
15172;DHT22;7686;52.184;9.280;2023-04-03T02:17:57;25.80;35.20
15172;DHT22;7686;52.184;9.280;2023-04-03T02:20:24;25.70;35.10
15172;DHT22;7686;52.184;9.280;2023-04-03T02:22:51;25.80;35.20
15172;DHT22;7686;52.184;9.280;2023-04-03T02:25:17;25.70;35.20
15172;DHT22;7686;52.184;9.280;2023-04-03T02:27:44;25.70;35.20
15172;DHT22;7686;52.184;9.280;2023-04-03T02:30:11;25.70;35.20
15172;DHT22;7686;52.184;9.280;2023-04-03T02:32:38;25.70;35.20
15172;DHT22;7686;52.184;9.280;2023-04-03T02:35:05;25.70;35.20
15172;DHT22;7686;52.184;9.280;2023-04-03T02:37:32;25.70;35.20
15172;DHT22;7686;52.184;9.280;2023-04-03T02:39:59;25.70;35.20
15172;DHT22;7686;52.184;9.280;2023-04-03T02:42:25;25.70;35.20
15172;DHT22;7686;52.184;9.280;2023-04-03T02:44:52;25.70;35.20
15172;DHT22;7686;52.184;9.280;2023-04-03T02:47:19;25.80;35.30
15172;DHT22;7686;52.184;9.280;2023-04-03T02:49:45;25.60;35.20
15172;DHT22;7686;52.184;9.280;2023-04-03T02:52:13;25.60;35.20
15172;DHT22;7686;52.184;9.280;2023-04-03T02:54:40;25.60;35.20
15172;DHT22;7686;52.184;9.280;2023-04-03T02:57:06;25.60;35.20
15172;DHT22;7686;52.184;9.280;2023-04-03T02:59:36;25.60;35.20
15172;DHT22;7686;52.184;9.280;2023-04-03T03:02:03;25.60;35.20
15172;DHT22;7686;52.184;9.280;2023-04-03T03:04:30;25.60;35.20
15172;DHT22;7686;52.184;9.280;2023-04-03T03:06:56;25.60;35.20
15172;DHT22;7686;52.184;9.280;2023-04-03T03:09:23;25.60;35.20
15172;DHT22;7686;52.184;9.280;2023-04-03T03:11:50;25.60;35.20
15172;DHT22;7686;52.184;9.280;2023-04-03T03:14:16;25.60;35.20
15172;DHT22;7686;52.184;9.280;2023-04-03T03:16:43;25.60;35.30
15172;DHT22;7686;52.184;9.280;2023-04-03T03:19:10;25.50;35.30
15172;DHT22;7686;52.184;9.280;2023-04-03T03:21:37;25.50;35.20
15172;DHT22;7686;52.184;9.280;2023-04-03T03:24:03;25.50;35.20
15172;DHT22;7686;52.184;9.280;2023-04-03T03:26:30;25.50;35.30
15172;DHT22;7686;52.184;9.280;2023-04-03T03:28:56;25.50;35.30
15172;DHT22;7686;52.184;9.280;2023-04-03T03:31:23;25.50;35.30
15172;DHT22;7686;52.184;9.280;2023-04-03T03:33:50;25.50;35.30
15172;DHT22;7686;52.184;9.280;2023-04-03T03:36:16;25.50;35.40
15172;DHT22;7686;52.184;9.280;2023-04-03T03:38:44;25.50;35.40
15172;DHT22;7686;52.184;9.280;2023-04-03T03:41:10;25.50;35.40
15172;DHT22;7686;52.184;9.280;2023-04-03T03:43:37;25.50;35.40
15172;DHT22;7686;52.184;9.280;2023-04-03T03:46:04;25.50;35.40
15172;DHT22;7686;52.184;9.280;2023-04-03T03:48:31;25.50;35.40
15172;DHT22;7686;52.184;9.280;2023-04-03T03:50:57;25.50;35.40
15172;DHT22;7686;52.184;9.280;2023-04-03T03:53:24;25.40;35.40
15172;DHT22;7686;52.184;9.280;2023-04-03T03:55:51;25.70;35.60
15172;DHT22;7686;52.184;9.280;2023-04-03T03:58:17;25.50;35.50
15172;DHT22;7686;52.184;9.280;2023-04-03T04:00:44;25.50;35.50
15172;DHT22;7686;52.184;9.280;2023-04-03T04:03:10;25.60;35.50
15172;DHT22;7686;52.184;9.280;2023-04-03T04:05:37;25.50;35.50
15172;DHT22;7686;52.184;9.280;2023-04-03T04:08:05;25.60;35.50
15172;DHT22;7686;52.184;9.280;2023-04-03T04:10:31;25.60;35.50
15172;DHT22;7686;52.184;9.280;2023-04-03T04:12:58;25.70;35.60
15172;DHT22;7686;52.184;9.280;2023-04-03T04:15:25;25.70;35.50
15172;DHT22;7686;52.184;9.280;2023-04-03T04:17:52;25.80;36.20
15172;DHT22;7686;52.184;9.280;2023-04-03T04:20:19;25.80;35.40
15172;DHT22;7686;52.184;9.280;2023-04-03T04:22:46;25.90;35.50
15172;DHT22;7686;52.184;9.280;2023-04-03T04:25:13;25.90;35.40
15172;DHT22;7686;52.184;9.280;2023-04-03T04:27:39;25.90;35.40
15172;DHT22;7686;52.184;9.280;2023-04-03T04:30:07;26.00;35.30
15172;DHT22;7686;52.184;9.280;2023-04-03T04:32:33;26.00;35.30
15172;DHT22;7686;52.184;9.280;2023-04-03T04:35:00;26.00;35.30
15172;DHT22;7686;52.184;9.280;2023-04-03T04:37:28;26.10;35.30
15172;DHT22;7686;52.184;9.280;2023-04-03T04:39:54;26.10;35.30
15172;DHT22;7686;52.184;9.280;2023-04-03T04:42:21;26.10;35.30
15172;DHT22;7686;52.184;9.280;2023-04-03T04:44:48;26.10;35.30
15172;DHT22;7686;52.184;9.280;2023-04-03T04:47:14;26.10;35.20
15172;DHT22;7686;52.184;9.280;2023-04-03T04:49:41;26.20;35.30
15172;DHT22;7686;52.184;9.280;2023-04-03T04:52:07;26.20;35.20
15172;DHT22;7686;52.184;9.280;2023-04-03T04:54:34;26.20;35.10
15172;DHT22;7686;52.184;9.280;2023-04-03T04:57:01;26.20;35.10
15172;DHT22;7686;52.184;9.280;2023-04-03T04:59:27;26.30;35.10
15172;DHT22;7686;52.184;9.280;2023-04-03T05:01:54;26.30;35.10
15172;DHT22;7686;52.184;9.280;2023-04-03T05:04:21;26.30;35.10
15172;DHT22;7686;52.184;9.280;2023-04-03T05:06:48;26.40;35.10
15172;DHT22;7686;52.184;9.280;2023-04-03T05:09:14;26.30;35.00
15172;DHT22;7686;52.184;9.280;2023-04-03T05:11:41;26.30;35.00
15172;DHT22;7686;52.184;9.280;2023-04-03T05:14:08;26.40;35.00
15172;DHT22;7686;52.184;9.280;2023-04-03T05:16:34;26.40;35.00
15172;DHT22;7686;52.184;9.280;2023-04-03T05:19:01;26.40;35.00
15172;DHT22;7686;52.184;9.280;2023-04-03T05:21:28;26.40;35.00
15172;DHT22;7686;52.184;9.280;2023-04-03T05:23:59;26.40;35.00
15172;DHT22;7686;52.184;9.280;2023-04-03T05:26:29;26.40;34.90
15172;DHT22;7686;52.184;9.280;2023-04-03T05:28:56;26.40;35.00
15172;DHT22;7686;52.184;9.280;2023-04-03T05:31:23;26.50;35.10
15172;DHT22;7686;52.184;9.280;2023-04-03T05:33:50;26.50;35.00
15172;DHT22;7686;52.184;9.280;2023-04-03T05:36:16;26.50;35.00
15172;DHT22;7686;52.184;9.280;2023-04-03T05:38:44;26.50;35.00
15172;DHT22;7686;52.184;9.280;2023-04-03T05:41:10;26.50;34.90
15172;DHT22;7686;52.184;9.280;2023-04-03T05:43:37;26.50;35.00
15172;DHT22;7686;52.184;9.280;2023-04-03T05:46:16;26.50;34.90
15172;DHT22;7686;52.184;9.280;2023-04-03T05:48:44;26.70;35.00
15172;DHT22;7686;52.184;9.280;2023-04-03T05:51:16;26.60;35.00
15172;DHT22;7686;52.184;9.280;2023-04-03T05:53:43;26.60;34.90
15172;DHT22;7686;52.184;9.280;2023-04-03T05:56:11;26.60;35.00
15172;DHT22;7686;52.184;9.280;2023-04-03T05:58:38;26.60;35.00
15172;DHT22;7686;52.184;9.280;2023-04-03T06:01:04;26.60;34.90
15172;DHT22;7686;52.184;9.280;2023-04-03T06:03:32;26.60;34.90
15172;DHT22;7686;52.184;9.280;2023-04-03T06:05:58;26.60;35.00
15172;DHT22;7686;52.184;9.280;2023-04-03T06:08:25;26.70;35.00
15172;DHT22;7686;52.184;9.280;2023-04-03T06:10:52;26.70;34.90
15172;DHT22;7686;52.184;9.280;2023-04-03T06:13:19;26.70;34.90
15172;DHT22;7686;52.184;9.280;2023-04-03T06:15:45;26.70;34.90
15172;DHT22;7686;52.184;9.280;2023-04-03T06:18:13;26.70;34.90
15172;DHT22;7686;52.184;9.280;2023-04-03T06:20:39;26.70;34.90
15172;DHT22;7686;52.184;9.280;2023-04-03T06:23:06;26.70;35.00
15172;DHT22;7686;52.184;9.280;2023-04-03T06:25:34;26.70;34.90
15172;DHT22;7686;52.184;9.280;2023-04-03T06:28:00;26.80;34.90
15172;DHT22;7686;52.184;9.280;2023-04-03T06:30:27;26.80;34.90
15172;DHT22;7686;52.184;9.280;2023-04-03T06:32:54;26.90;35.00
15172;DHT22;7686;52.184;9.280;2023-04-03T06:35:21;26.90;34.80
15172;DHT22;7686;52.184;9.280;2023-04-03T06:37:50;26.90;34.90
15172;DHT22;7686;52.184;9.280;2023-04-03T06:40:22;26.90;34.80
15172;DHT22;7686;52.184;9.280;2023-04-03T06:42:50;27.00;34.80
15172;DHT22;7686;52.184;9.280;2023-04-03T06:45:16;27.00;34.80
15172;DHT22;7686;52.184;9.280;2023-04-03T06:47:43;27.00;34.80
15172;DHT22;7686;52.184;9.280;2023-04-03T06:50:11;27.00;34.80
15172;DHT22;7686;52.184;9.280;2023-04-03T06:52:41;27.00;34.70
15172;DHT22;7686;52.184;9.280;2023-04-03T06:55:08;27.00;34.70
15172;DHT22;7686;52.184;9.280;2023-04-03T06:57:36;27.00;34.70
15172;DHT22;7686;52.184;9.280;2023-04-03T07:00:05;27.00;34.70
15172;DHT22;7686;52.184;9.280;2023-04-03T07:02:32;27.10;34.70
15172;DHT22;7686;52.184;9.280;2023-04-03T07:04:58;27.10;34.70
15172;DHT22;7686;52.184;9.280;2023-04-03T07:07:25;27.10;34.70
15172;DHT22;7686;52.184;9.280;2023-04-03T07:09:52;27.10;34.70
15172;DHT22;7686;52.184;9.280;2023-04-03T07:12:20;27.10;34.70
15172;DHT22;7686;52.184;9.280;2023-04-03T07:14:47;27.20;34.70
15172;DHT22;7686;52.184;9.280;2023-04-03T07:17:14;27.20;34.70
15172;DHT22;7686;52.184;9.280;2023-04-03T07:19:40;27.30;34.70
15172;DHT22;7686;52.184;9.280;2023-04-03T07:22:07;27.20;34.60
15172;DHT22;7686;52.184;9.280;2023-04-03T07:24:34;27.30;34.00
15172;DHT22;7686;52.184;9.280;2023-04-03T07:27:01;27.30;34.70
15172;DHT22;7686;52.184;9.280;2023-04-03T07:29:29;27.30;34.70
15172;DHT22;7686;52.184;9.280;2023-04-03T07:31:56;27.30;34.70
15172;DHT22;7686;52.184;9.280;2023-04-03T07:34:23;27.30;34.60
15172;DHT22;7686;52.184;9.280;2023-04-03T07:36:49;27.40;34.60
15172;DHT22;7686;52.184;9.280;2023-04-03T07:39:16;27.40;34.70
15172;DHT22;7686;52.184;9.280;2023-04-03T07:41:43;27.40;34.70
15172;DHT22;7686;52.184;9.280;2023-04-03T07:44:10;27.40;34.70
15172;DHT22;7686;52.184;9.280;2023-04-03T07:46:37;27.40;34.70
15172;DHT22;7686;52.184;9.280;2023-04-03T07:49:04;27.50;34.80
15172;DHT22;7686;52.184;9.280;2023-04-03T07:51:31;27.50;34.80
15172;DHT22;7686;52.184;9.280;2023-04-03T07:53:58;27.50;34.90
15172;DHT22;7686;52.184;9.280;2023-04-03T07:56:25;27.60;34.90
15172;DHT22;7686;52.184;9.280;2023-04-03T07:58:51;27.60;32.30
15172;DHT22;7686;52.184;9.280;2023-04-03T08:01:18;27.50;29.70
15172;DHT22;7686;52.184;9.280;2023-04-03T08:03:44;27.20;28.30
15172;DHT22;7686;52.184;9.280;2023-04-03T08:06:12;26.90;27.60
15172;DHT22;7686;52.184;9.280;2023-04-03T08:08:43;26.30;27.60
15172;DHT22;7686;52.184;9.280;2023-04-03T08:11:10;25.80;27.90
15172;DHT22;7686;52.184;9.280;2023-04-03T08:13:37;25.50;28.40
15172;DHT22;7686;52.184;9.280;2023-04-03T08:16:09;25.30;28.90
15172;DHT22;7686;52.184;9.280;2023-04-03T08:18:37;25.10;29.20
15172;DHT22;7686;52.184;9.280;2023-04-03T08:21:10;25.00;29.70
15172;DHT22;7686;52.184;9.280;2023-04-03T08:23:39;25.00;29.80
15172;DHT22;7686;52.184;9.280;2023-04-03T08:26:11;25.00;30.10
15172;DHT22;7686;52.184;9.280;2023-04-03T08:28:39;25.10;30.30
15172;DHT22;7686;52.184;9.280;2023-04-03T08:31:09;25.10;30.60
15172;DHT22;7686;52.184;9.280;2023-04-03T08:33:38;25.20;30.80
15172;DHT22;7686;52.184;9.280;2023-04-03T08:36:07;25.30;30.90
15172;DHT22;7686;52.184;9.280;2023-04-03T08:38:34;25.40;31.00
15172;DHT22;7686;52.184;9.280;2023-04-03T08:46:11;25.70;30.80
15172;DHT22;7686;52.184;9.280;2023-04-03T08:48:42;25.80;30.70
15172;DHT22;7686;52.184;9.280;2023-04-03T08:51:14;25.80;30.80
15172;DHT22;7686;52.184;9.280;2023-04-03T08:54:01;25.90;31.00
15172;DHT22;7686;52.184;9.280;2023-04-03T08:56:31;26.00;31.10
15172;DHT22;7686;52.184;9.280;2023-04-03T08:59:01;26.10;31.20
15172;DHT22;7686;52.184;9.280;2023-04-03T09:01:40;26.20;31.20
15172;DHT22;7686;52.184;9.280;2023-04-03T09:04:13;26.30;31.10
15172;DHT22;7686;52.184;9.280;2023-04-03T09:06:45;26.40;31.30
15172;DHT22;7686;52.184;9.280;2023-04-03T09:14:52;26.70;31.40
15172;DHT22;7686;52.184;9.280;2023-04-03T09:20:38;26.90;31.50
15172;DHT22;7686;52.184;9.280;2023-04-03T09:26:15;27.10;31.60
15172;DHT22;7686;52.184;9.280;2023-04-03T09:28:43;27.20;31.60
15172;DHT22;7686;52.184;9.280;2023-04-03T09:31:23;27.30;31.80
15172;DHT22;7686;52.184;9.280;2023-04-03T09:33:54;27.50;31.70
15172;DHT22;7686;52.184;9.280;2023-04-03T09:36:44;27.60;31.60
15172;DHT22;7686;52.184;9.280;2023-04-03T09:39:22;27.70;31.40
15172;DHT22;7686;52.184;9.280;2023-04-03T09:44:25;27.90;31.30
15172;DHT22;7686;52.184;9.280;2023-04-03T09:46:52;28.00;31.30
15172;DHT22;7686;52.184;9.280;2023-04-03T09:49:19;28.10;31.40
15172;DHT22;7686;52.184;9.280;2023-04-03T09:51:46;28.10;31.40
15172;DHT22;7686;52.184;9.280;2023-04-03T09:54:31;28.20;31.40
15172;DHT22;7686;52.184;9.280;2023-04-03T09:57:10;28.30;31.40
15172;DHT22;7686;52.184;9.280;2023-04-03T10:00:05;28.40;31.30
15172;DHT22;7686;52.184;9.280;2023-04-03T10:02:33;28.40;31.30
15172;DHT22;7686;52.184;9.280;2023-04-03T10:05:01;28.50;31.30
15172;DHT22;7686;52.184;9.280;2023-04-03T10:07:35;28.50;31.30
15172;DHT22;7686;52.184;9.280;2023-04-03T10:10:23;28.50;31.20
15172;DHT22;7686;52.184;9.280;2023-04-03T10:13:13;28.60;31.30
15172;DHT22;7686;52.184;9.280;2023-04-03T10:15:59;28.60;31.30
15172;DHT22;7686;52.184;9.280;2023-04-03T10:21:59;28.60;31.20
15172;DHT22;7686;52.184;9.280;2023-04-03T10:24:08;28.70;31.30
15172;DHT22;7686;52.184;9.280;2023-04-03T10:26:47;28.70;31.20
15172;DHT22;7686;52.184;9.280;2023-04-03T10:29:51;28.70;31.20
15172;DHT22;7686;52.184;9.280;2023-04-03T10:32:42;28.70;31.20
15172;DHT22;7686;52.184;9.280;2023-04-03T10:35:18;28.70;31.20
15172;DHT22;7686;52.184;9.280;2023-04-03T10:37:56;28.80;31.30
15172;DHT22;7686;52.184;9.280;2023-04-03T10:40:40;28.80;31.30
15172;DHT22;7686;52.184;9.280;2023-04-03T10:43:21;28.70;31.30
15172;DHT22;7686;52.184;9.280;2023-04-03T10:48:44;28.80;31.40
15172;DHT22;7686;52.184;9.280;2023-04-03T10:51:25;28.80;31.40
15172;DHT22;7686;52.184;9.280;2023-04-03T10:54:26;28.80;31.60
15172;DHT22;7686;52.184;9.280;2023-04-03T10:57:01;28.80;31.60
15172;DHT22;7686;52.184;9.280;2023-04-03T10:59:44;28.80;31.60
15172;DHT22;7686;52.184;9.280;2023-04-03T11:05:04;28.80;31.60
15172;DHT22;7686;52.184;9.280;2023-04-03T11:07:39;28.80;31.60
15172;DHT22;7686;52.184;9.280;2023-04-03T11:10:29;28.80;31.60
15172;DHT22;7686;52.184;9.280;2023-04-03T11:13:08;28.80;31.60
15172;DHT22;7686;52.184;9.280;2023-04-03T11:15:37;28.80;31.60
15172;DHT22;7686;52.184;9.280;2023-04-03T11:21:20;28.80;31.70
15172;DHT22;7686;52.184;9.280;2023-04-03T11:23:48;28.80;31.70
15172;DHT22;7686;52.184;9.280;2023-04-03T11:26:18;28.80;31.80
15172;DHT22;7686;52.184;9.280;2023-04-03T11:28:45;28.80;31.80
15172;DHT22;7686;52.184;9.280;2023-04-03T11:31:31;28.80;31.90
15172;DHT22;7686;52.184;9.280;2023-04-03T11:37:16;28.80;32.00
15172;DHT22;7686;52.184;9.280;2023-04-03T11:39:54;28.90;32.10
15172;DHT22;7686;52.184;9.280;2023-04-03T11:42:37;29.00;32.10
15172;DHT22;7686;52.184;9.280;2023-04-03T11:47:54;29.10;32.30
15172;DHT22;7686;52.184;9.280;2023-04-03T11:58:24;29.40;32.10
15172;DHT22;7686;52.184;9.280;2023-04-03T12:01:11;29.60;32.10
15172;DHT22;7686;52.184;9.280;2023-04-03T12:04:06;29.60;32.00
15172;DHT22;7686;52.184;9.280;2023-04-03T12:09:04;29.80;31.90
15172;DHT22;7686;52.184;9.280;2023-04-03T12:11:48;29.90;31.80
15172;DHT22;7686;52.184;9.280;2023-04-03T12:14:16;30.00;31.80
15172;DHT22;7686;52.184;9.280;2023-04-03T12:16:46;30.00;31.80
15172;DHT22;7686;52.184;9.280;2023-04-03T12:27:03;30.30;31.60
15172;DHT22;7686;52.184;9.280;2023-04-03T12:29:39;30.30;31.50
15172;DHT22;7686;52.184;9.280;2023-04-03T12:35:30;30.40;31.30
15172;DHT22;7686;52.184;9.280;2023-04-03T12:46:19;30.50;31.10
15172;DHT22;7686;52.184;9.280;2023-04-03T12:48:53;30.50;31.00
15172;DHT22;7686;52.184;9.280;2023-04-03T12:51:31;30.60;31.00
15172;DHT22;7686;52.184;9.280;2023-04-03T12:56:42;30.50;30.80
15172;DHT22;7686;52.184;9.280;2023-04-03T12:59:25;30.60;31.00
15172;DHT22;7686;52.184;9.280;2023-04-03T13:01:54;30.50;30.90
15172;DHT22;7686;52.184;9.280;2023-04-03T13:04:21;30.60;30.90
15172;DHT22;7686;52.184;9.280;2023-04-03T13:06:49;30.60;30.90
15172;DHT22;7686;52.184;9.280;2023-04-03T13:11:50;30.60;30.80
15172;DHT22;7686;52.184;9.280;2023-04-03T13:14:20;30.60;30.90
15172;DHT22;7686;52.184;9.280;2023-04-03T13:17:06;30.60;30.90
15172;DHT22;7686;52.184;9.280;2023-04-03T13:19:32;30.60;30.80
15172;DHT22;7686;52.184;9.280;2023-04-03T13:22:02;30.60;31.20
15172;DHT22;7686;52.184;9.280;2023-04-03T13:24:34;30.60;31.00
15172;DHT22;7686;52.184;9.280;2023-04-03T13:27:02;30.70;31.30
15172;DHT22;7686;52.184;9.280;2023-04-03T13:29:35;30.60;31.10
15172;DHT22;7686;52.184;9.280;2023-04-03T13:32:04;30.70;31.20
15172;DHT22;7686;52.184;9.280;2023-04-03T13:34:42;30.70;31.20
15172;DHT22;7686;52.184;9.280;2023-04-03T13:40:03;30.70;31.20
15172;DHT22;7686;52.184;9.280;2023-04-03T13:42:35;30.70;31.10
15172;DHT22;7686;52.184;9.280;2023-04-03T13:45:14;30.80;31.30
15172;DHT22;7686;52.184;9.280;2023-04-03T13:47:44;30.80;31.30
15172;DHT22;7686;52.184;9.280;2023-04-03T13:53:03;30.90;31.30
15172;DHT22;7686;52.184;9.280;2023-04-03T13:55:35;30.90;31.40
15172;DHT22;7686;52.184;9.280;2023-04-03T13:58:21;31.00;32.40
15172;DHT22;7686;52.184;9.280;2023-04-03T14:00:52;31.00;31.50
15172;DHT22;7686;52.184;9.280;2023-04-03T14:03:29;31.00;31.60
15172;DHT22;7686;52.184;9.280;2023-04-03T14:05:56;31.10;31.80
15172;DHT22;7686;52.184;9.280;2023-04-03T14:08:23;31.20;31.80
15172;DHT22;7686;52.184;9.280;2023-04-03T14:13:44;31.30;31.90
15172;DHT22;7686;52.184;9.280;2023-04-03T14:16:13;31.30;31.70
15172;DHT22;7686;52.184;9.280;2023-04-03T14:18:42;31.40;31.60
15172;DHT22;7686;52.184;9.280;2023-04-03T14:21:12;31.50;31.40
15172;DHT22;7686;52.184;9.280;2023-04-03T14:23:39;31.50;31.30
15172;DHT22;7686;52.184;9.280;2023-04-03T14:26:12;31.50;31.20
15172;DHT22;7686;52.184;9.280;2023-04-03T14:28:39;31.60;31.20
15172;DHT22;7686;52.184;9.280;2023-04-03T14:31:11;31.60;31.10
15172;DHT22;7686;52.184;9.280;2023-04-03T14:33:39;31.60;31.00
15172;DHT22;7686;52.184;9.280;2023-04-03T14:36:15;31.60;31.00
15172;DHT22;7686;52.184;9.280;2023-04-03T14:38:43;31.60;30.80
15172;DHT22;7686;52.184;9.280;2023-04-03T14:41:13;31.60;30.90
15172;DHT22;7686;52.184;9.280;2023-04-03T14:43:43;31.70;30.90
15172;DHT22;7686;52.184;9.280;2023-04-03T14:46:28;31.70;30.90
15172;DHT22;7686;52.184;9.280;2023-04-03T14:49:26;31.70;31.50
15172;DHT22;7686;52.184;9.280;2023-04-03T14:51:56;31.70;30.80
15172;DHT22;7686;52.184;9.280;2023-04-03T14:54:23;31.70;30.90
15172;DHT22;7686;52.184;9.280;2023-04-03T14:56:55;31.70;30.80
15172;DHT22;7686;52.184;9.280;2023-04-03T14:59:22;31.70;30.80
15172;DHT22;7686;52.184;9.280;2023-04-03T15:01:49;31.70;30.80
15172;DHT22;7686;52.184;9.280;2023-04-03T15:04:19;31.70;28.40
15172;DHT22;7686;52.184;9.280;2023-04-03T15:06:47;31.60;27.30
15172;DHT22;7686;52.184;9.280;2023-04-03T15:09:26;31.50;26.20
15172;DHT22;7686;52.184;9.280;2023-04-03T15:11:54;31.40;25.50
15172;DHT22;7686;52.184;9.280;2023-04-03T15:14:22;31.30;25.60
15172;DHT22;7686;52.184;9.280;2023-04-03T15:17:04;31.00;25.60
15172;DHT22;7686;52.184;9.280;2023-04-03T15:19:37;30.80;25.10
15172;DHT22;7686;52.184;9.280;2023-04-03T15:22:04;30.50;24.50
15172;DHT22;7686;52.184;9.280;2023-04-03T15:24:31;30.30;25.00
15172;DHT22;7686;52.184;9.280;2023-04-03T15:26:58;30.10;24.70
15172;DHT22;7686;52.184;9.280;2023-04-03T15:29:24;29.80;24.60
15172;DHT22;7686;52.184;9.280;2023-04-03T15:31:51;29.60;25.00
15172;DHT22;7686;52.184;9.280;2023-04-03T15:34:20;29.50;25.10
15172;DHT22;7686;52.184;9.280;2023-04-03T15:36:48;29.20;26.20
15172;DHT22;7686;52.184;9.280;2023-04-03T15:39:15;29.10;26.90
15172;DHT22;7686;52.184;9.280;2023-04-03T15:41:42;28.90;27.40
15172;DHT22;7686;52.184;9.280;2023-04-03T15:44:09;28.90;27.90
15172;DHT22;7686;52.184;9.280;2023-04-03T15:46:36;28.80;28.30
15172;DHT22;7686;52.184;9.280;2023-04-03T15:49:04;28.80;28.60
15172;DHT22;7686;52.184;9.280;2023-04-03T15:51:31;28.90;28.90
15172;DHT22;7686;52.184;9.280;2023-04-03T15:53:58;29.00;29.10
15172;DHT22;7686;52.184;9.280;2023-04-03T15:56:24;29.00;29.20
15172;DHT22;7686;52.184;9.280;2023-04-03T15:58:51;29.10;29.30
15172;DHT22;7686;52.184;9.280;2023-04-03T16:01:18;29.20;29.40
15172;DHT22;7686;52.184;9.280;2023-04-03T16:03:44;29.30;29.50
15172;DHT22;7686;52.184;9.280;2023-04-03T16:06:13;29.30;29.50
15172;DHT22;7686;52.184;9.280;2023-04-03T16:08:40;29.40;29.60
15172;DHT22;7686;52.184;9.280;2023-04-03T16:11:08;29.50;29.50
15172;DHT22;7686;52.184;9.280;2023-04-03T16:13:34;29.50;29.50
15172;DHT22;7686;52.184;9.280;2023-04-03T16:16:02;29.60;29.50
15172;DHT22;7686;52.184;9.280;2023-04-03T16:18:30;29.70;29.50
15172;DHT22;7686;52.184;9.280;2023-04-03T16:20:57;29.70;29.40
15172;DHT22;7686;52.184;9.280;2023-04-03T16:23:24;29.70;29.40
15172;DHT22;7686;52.184;9.280;2023-04-03T16:25:50;29.80;29.50
15172;DHT22;7686;52.184;9.280;2023-04-03T16:28:17;29.90;29.50
15172;DHT22;7686;52.184;9.280;2023-04-03T16:30:45;30.00;29.60
15172;DHT22;7686;52.184;9.280;2023-04-03T16:33:13;30.00;29.50
15172;DHT22;7686;52.184;9.280;2023-04-03T16:35:40;30.00;29.50
15172;DHT22;7686;52.184;9.280;2023-04-03T16:38:08;30.00;29.70
15172;DHT22;7686;52.184;9.280;2023-04-03T16:40:35;30.00;29.60
15172;DHT22;7686;52.184;9.280;2023-04-03T16:43:02;30.10;29.70
15172;DHT22;7686;52.184;9.280;2023-04-03T16:45:29;30.10;29.70
15172;DHT22;7686;52.184;9.280;2023-04-03T16:47:55;30.10;29.70
15172;DHT22;7686;52.184;9.280;2023-04-03T16:50:22;30.10;29.80
15172;DHT22;7686;52.184;9.280;2023-04-03T16:52:48;30.20;29.90
15172;DHT22;7686;52.184;9.280;2023-04-03T16:55:15;30.20;29.80
15172;DHT22;7686;52.184;9.280;2023-04-03T16:57:42;30.20;30.50
15172;DHT22;7686;52.184;9.280;2023-04-03T17:00:09;30.20;30.10
15172;DHT22;7686;52.184;9.280;2023-04-03T17:02:36;30.20;30.00
15172;DHT22;7686;52.184;9.280;2023-04-03T17:05:03;30.20;30.00
15172;DHT22;7686;52.184;9.280;2023-04-03T17:07:29;30.20;30.10
15172;DHT22;7686;52.184;9.280;2023-04-03T17:09:56;30.20;30.00
15172;DHT22;7686;52.184;9.280;2023-04-03T17:12:24;30.30;30.10
15172;DHT22;7686;52.184;9.280;2023-04-03T17:14:51;30.30;30.30
15172;DHT22;7686;52.184;9.280;2023-04-03T17:17:22;30.20;30.20
15172;DHT22;7686;52.184;9.280;2023-04-03T17:19:50;30.30;30.40
15172;DHT22;7686;52.184;9.280;2023-04-03T17:22:16;30.30;30.40
15172;DHT22;7686;52.184;9.280;2023-04-03T17:24:44;30.30;30.40
15172;DHT22;7686;52.184;9.280;2023-04-03T17:27:10;30.30;30.40